logo
App data

SLG Remix

SLG Remix is an alternate kinetic version of the brand new 16-bit horror visual novel/adventure Mega Drive game Sacred Line Genesis. A surreal, twisted kinetic novel tribute to obscure visual novel / adventure games of 90s.
Store | Hub | SteamDB | Site
Developer: 1812 Productions (PC Port) Publisher: 1812 Productions
Genre: Adventure, Casual, Indie
Languages: English
Tags: Adventure (23), Casual (22), Indie (21), Violent (20), Gore (20), Visual Novel (7), Horror (6)
Category: Single-player, Steam Trading Cards
Release date: Jun 1, 2016
Price: $2.99
Owners: 0 .. 20,000
Followers: 118
Playtime total: 02:30 (average) 02:30 (median)

Steam Spy is still in beta, so expect major bugs.

Owners data:

Access restricted.

This feature is only available to users with special access rights. Sorry.

If you want to proceed, you need to register or log in first and then back Steam Spy on Patreon. Look for Indie or Pro pledge.

Don't forget to use the same email as on Steam Spy!

Audience in 2 weeks:

Access restricted.

This feature is only available to users with special access rights. Sorry.

If you want to proceed, you need to register or log in first and then back Steam Spy on Patreon. Look for Indie or Pro pledge.

Don't forget to use the same email as on Steam Spy!

Peak daily concurrent players:

CCU data courtesy of SteamDB. Used with permission.

Hourly concurrent players:

Followers over time

Access restricted.

This feature is only available to users with special access rights. Sorry.

If you want to proceed, you need to register or log in first and then back Steam Spy on Patreon. Look for Indie or Pro pledge.

Don't forget to use the same email as on Steam Spy!

Views for top 50 videos on YouTube for this game:

Games similar to this one:

# Game Release date
Price
Score rank
(Userscore / Metascore)
Owners
Players
Playtime (Median)
1 Return to Mysterious Island Mar 6, 2014 $7.99N/A (N/A)50,000 .. 100,0000%00:00 (00:00)
2 Detective Case and Clown Bot in: Murder in the Hotel Lisbon Jul 17, 2014 $5.99N/A (N/A)20,000 .. 50,0000%00:00 (00:00)
3 Richard & Alice Jun 5, 2014 $5.99N/A (N/A/70%)50,000 .. 100,0000%00:00 (00:00)
4 Pitiri 1977 Nov 7, 2014 $3.99N/A (N/A)20,000 .. 50,0000%00:00 (00:00)
5 A Boy and His Blob Jan 19, 2016 $9.99N/A (N/A)50,000 .. 100,0000%00:00 (00:00)
6 Lost Chronicles of Zerzura Jul 10, 2014 $9.99N/A (N/A)50,000 .. 100,0000%00:00 (00:00)
7 Sanitarium Oct 29, 2014 $9.99N/A (N/A)50,000 .. 100,0000%00:00 (00:00)
8 Shiftlings Mar 3, 2015 $14.99N/A (N/A/70%)50,000 .. 100,0000%00:00 (00:00)
9 Clockwork Tales: Of Glass and Ink Apr 24, 2014 $9.99N/A (N/A)50,000 .. 100,0000%00:00 (00:00)
10 Randal's Monday Nov 12, 2014 $1.99N/A (N/A/57%)100,000 .. 200,0000%00:00 (00:00)
11 Nostradamus: The Last Prophecy Apr 24, 2014 $4.99N/A (N/A/70%)50,000 .. 100,0000%00:00 (00:00)
12 eXperience 112 Oct 24, 2014 $9.99N/A (N/A)20,000 .. 50,0000%00:00 (00:00)
13 Whispering Willows Jul 9, 2014 $9.99N/A (N/A)200,000 .. 500,0000%00:00 (00:00)
14 Gunspell - Steam Edition Nov 7, 2014 $14.99N/A (N/A)20,000 .. 50,0000%00:00 (00:00)
15 The Charnel House Trilogy Apr 16, 2015 $5.99N/A (N/A/68%)20,000 .. 50,0000%00:00 (00:00)
16 The Journey Down: Chapter Two Aug 25, 2014 $19.99N/A (N/A/78%)50,000 .. 100,0000%00:00 (00:00)
17 The Lost Crown Jun 6, 2014 $9.99N/A (N/A/71%)50,000 .. 100,0000%00:00 (00:00)
18 Supreme League of Patriots Jan 29, 2015 $5.99N/A (N/A/56%)20,000 .. 50,0000%00:00 (00:00)
19 The Travels of Marco Polo May 6, 2015 $6.99N/A (N/A)0 .. 20,0000%00:00 (00:00)
20 Morningstar: Descent to Deadrock Feb 17, 2015 $9.99N/A (N/A)50,000 .. 100,0000%00:00 (00:00)
21 Last Heroes Nov 13, 2015 $0.59N/A (N/A)0 .. 20,0000%00:00 (00:00)
22 Dead Synchronicity: Tomorrow Comes Today Apr 10, 2015 $9.99N/A (N/A/70%)50,000 .. 100,0000%00:00 (00:00)
23 Idol Magical Girl Chiru Chiru Michiru Part 2 Jul 29, 2015 $19.99N/A (N/A)20,000 .. 50,0000%00:00 (00:00)
24 Teddy Floppy Ear - Kayaking Jan 16, 2015 $4.99N/A (N/A)50,000 .. 100,0000%00:00 (00:00)
25 MechaNika Jul 16, 2015 $3.99N/A (N/A)20,000 .. 50,0000%00:00 (00:00)
26 Lex Mortis Feb 9, 2015 $4.99N/A (N/A)50,000 .. 100,0000%00:00 (00:00)
27 Airport Madness 4 Jul 24, 2015 $9.99N/A (N/A)0 .. 20,0000%00:00 (00:00)
28 Odysseus: Long Way Home Feb 23, 2015 $3.99N/A (N/A)100,000 .. 200,0000%00:00 (00:00)
29 Bulb Boy Oct 29, 2015 $8.99N/A (N/A/84%)100,000 .. 200,0000%00:00 (00:00)
30 Corrosion: Cold Winter Waiting [Enhanced Edition] Jul 1, 2015 $7.99N/A (N/A)50,000 .. 100,0000%00:00 (00:00)
31 A Sirius Game Aug 21, 2015 $4.99N/A (N/A)0 .. 20,0000%00:00 (00:00)
32 Blue Rose Apr 23, 2015 $15.99N/A (N/A)20,000 .. 50,0000%00:00 (00:00)
33 Disney•Pixar WALL-E Dec 11, 2008 $19.99N/A (N/A)20,000 .. 50,0000%00:00 (00:00)
34 Seasons after Fall Sep 2, 2016 $9.99N/A (N/A/75%)200,000 .. 500,0000%00:00 (00:00)
35 Adam's Venture: Origins Apr 1, 2016 $17.99N/A (N/A)20,000 .. 50,0000%00:00 (00:00)
36 HotLead Nov 6, 2015 $0.99N/A (N/A)50,000 .. 100,0000%00:00 (00:00)
37 Wuppo: Definitive Edition Sep 29, 2016 $14.99N/A (N/A/78%)200,000 .. 500,0003.23%02:51 (00:57)
38 Space Pilgrim Episode I: Alpha Centauri Dec 14, 2015 FreeN/A (N/A)1,000,000 .. 2,000,0000%00:00 (00:00)
39 Californium Feb 17, 2016 $6.99N/A (N/A/64%)0 .. 20,0000%00:00 (00:00)
40 Cursed Jun 17, 2016 $4.99N/A (N/A)50,000 .. 100,0000%00:00 (00:00)
41 Airport Madness: Time Machine Sep 18, 2015 $6.99N/A (N/A)0 .. 20,0000%00:00 (00:00)
42 Space Pilgrim Episode II: Epsilon Indi Jan 9, 2016 $0.49N/A (N/A)100,000 .. 200,0000%00:00 (00:00)
43 The Last Door: Season 2 - Collector's Edition Mar 29, 2016 $9.99N/A (N/A/85%)20,000 .. 50,0000%00:00 (00:00)
44 Space Pilgrim Episode III: Delta Pavonis Feb 4, 2016 $0.49N/A (N/A)200,000 .. 500,0000%00:00 (00:00)
45 The Coma: Cutting Class Oct 19, 2015 N/AN/A (N/A/69%)0 .. 20,0000%00:00 (00:00)
46 Inexistence Feb 17, 2016 $2.99N/A (N/A)50,000 .. 100,0000%00:00 (00:00)
47 Draw a Stickman: EPIC 2 Nov 6, 2015 $6.99N/A (N/A)20,000 .. 50,0000%00:00 (00:00)
48 Magi Trials Nov 17, 2016 $12.99N/A (N/A)0 .. 20,0000%00:00 (00:00)
49 The Uncertain: Last Quiet Day Sep 22, 2016 $14.99N/A (N/A)200,000 .. 500,0002.63%00:01 (00:00)
50 The Last Dream: Developer's Edition Dec 3, 2015 $9.99N/A (N/A)20,000 .. 50,0000%00:00 (00:00)
51 Vampire Legends: The True Story of Kisilova Dec 3, 2015 $9.99N/A (N/A)50,000 .. 100,0000%00:00 (00:00)
52 Blackwell Unbound Jan 13, 2012 $4.99N/A (N/A)100,000 .. 200,0000%00:00 (00:00)
53 Dyscourse Mar 25, 2015 $14.99N/A (N/A/71%)50,000 .. 100,0000%00:00 (00:00)
54 Hector: Badge of Carnage - Full Series Apr 27, 2011 $14.99N/A (N/A/75%)100,000 .. 200,0000%00:00 (00:00)
55 The 39 Steps Apr 25, 2013 $4.99N/A (N/A)200,000 .. 500,0000%00:00 (00:00)
56 Stacking Mar 6, 2012 $9.99N/A (N/A/80%)200,000 .. 500,0000%00:00 (00:00)
57 Eleusis Oct 16, 2013 $14.99N/A (N/A)20,000 .. 50,0000%00:00 (00:00)
58 Yesterday Mar 22, 2012 $9.99N/A (N/A/65%)100,000 .. 200,0000%00:00 (00:00)
59 The Inner World Sep 27, 2013 $14.99N/A (N/A/72%)100,000 .. 200,0000%00:00 (00:00)
60 Resonance Jul 25, 2012 $9.99N/A (N/A/76%)50,000 .. 100,0000%00:00 (00:00)
61 Haunted Aug 18, 2014 $14.99N/A (N/A/76%)20,000 .. 50,0000%00:00 (00:00)
62 The Journey Down: Chapter One Jan 9, 2013 $8.99N/A (N/A/72%)100,000 .. 200,0000%00:00 (00:00)
63 Sam & Max 201: Ice Station Santa May 16, 2008 N/AN/A (N/A/82%)20,000 .. 50,0000%00:00 (00:00)
64 The Book of Unwritten Tales: The Critter Chronicles Dec 5, 2012 $19.99N/A (N/A/73%)50,000 .. 100,0000%00:00 (00:00)
65 Back to the Future: The Game Dec 23, 2010 N/AN/A (N/A/74%)500,000 .. 1,000,0000%00:00 (00:00)
66 Hamlet or the Last Game without MMORPG Features, Shaders ... Oct 22, 2012 $4.99N/A (N/A)200,000 .. 500,0003.23%02:11 (00:43)
67 The Blackwell Legacy Jan 13, 2012 $4.99N/A (N/A/80%)100,000 .. 200,0000%00:00 (00:00)
68 The Night of the Rabbit May 28, 2013 $19.99N/A (N/A/75%)200,000 .. 500,0000%00:00 (00:00)
69 Bad Dream: Coma Mar 9, 2017 $8.99N/A (N/A)50,000 .. 100,0000%00:00 (00:00)
70 LostWinds 2: Winter of the Melodias Mar 24, 2016 $9.99N/A (N/A)20,000 .. 50,00016.67%02:16 (00:45)
71 Project Abyss Nov 18, 2016 $4.99N/A (N/A)0 .. 20,0000%00:00 (00:00)
72 Bizarre Earthquake May 11, 2016 $1.99N/A (N/A)50,000 .. 100,0000%00:00 (00:00)
73 Stories Untold Feb 27, 2017 $9.99N/A (N/A/81%)100,000 .. 200,0000%00:00 (00:00)
74 The Deed: Dynasty May 10, 2016 $1.49N/A (N/A)50,000 .. 100,0000%00:00 (00:00)
75 Edge of Twilight – Return To Glory Sep 28, 2016 $14.99N/A (N/A)0 .. 20,0000%00:00 (00:00)
76 神明的一天世界(God's One Day World) Jul 1, 2016 $9.99N/A (N/A)0 .. 20,0000%00:00 (00:00)
77 Existentia Aug 8, 2016 $0.99N/A (N/A)200,000 .. 500,0000%00:00 (00:00)
78 Endless Room Sep 30, 2016 $1.99N/A (N/A)50,000 .. 100,0000%00:00 (00:00)
79 Greenwood the Last Ritual Jan 19, 2017 $2.99N/A (N/A)100,000 .. 200,0000%00:00 (00:00)
80 Space Pilgrim Episode IV: Sol Mar 4, 2016 $0.49N/A (N/A)100,000 .. 200,0000%00:00 (00:00)

Tags over time:

Access restricted.

This feature is only available to users with special access rights. Sorry.

If you want to proceed, you need to register or log in first and then back Steam Spy on Patreon. Look for Indie or Pro pledge.

Don't forget to use the same email as on Steam Spy!

Owners of this game also own:

Access restricted.

This feature is only available to users with special access rights. Sorry.

If you want to proceed, you need to register or log in first and then back Steam Spy on Patreon. Look for Indie or Pro pledge.

Don't forget to use the same email as on Steam Spy!

Playtime distribution:

Access restricted.

This feature is only available to users with special access rights. Sorry.

If you want to proceed, you need to register or log in first and then back Steam Spy on Patreon. Look for Indie or Pro pledge.

Don't forget to use the same email as on Steam Spy!

Playtime (2 weeks):

Access restricted.

This feature is only available to users with special access rights. Sorry.

If you want to proceed, you need to register or log in first and then back Steam Spy on Patreon. Look for Indie or Pro pledge.

Don't forget to use the same email as on Steam Spy!

User reviews:

Login required.

Please register or log in to see this information.